INFORMAÇÕES DO AERODROMO
Icao Aerodromo KMHT Nome do Aerodromo Manchester Airport Cidade Manchester
Código GPS KMHT Elevação Média 266 ft Tipo de Aerodromo Aeroporto Grande Porte

INFORMAÇÃO DE PISTA
Pista 06 Comprimento da Pista 6850 ft Largura da Pista 150 ft
Elevação da Pista 220 ft Distância de Area de Escape da Pista 0 ft Orientação da Pista 42
Pista 24 Comprimento da Pista 6850 ft Largura da Pista 150 ft
Elevação da Pista 238 ft Distância de Area de Escape da Pista 0 ft Orientação da Pista 222
Pista 17 Comprimento da Pista 9250 ft Largura da Pista 150 ft
Elevação da Pista 218 ft Distância de Area de Escape da Pista 336 ft Orientação da Pista 157
Pista 35 Comprimento da Pista 9250 ft Largura da Pista 150 ft
Elevação da Pista 265 ft Distância de Area de Escape da Pista 850 ft Orientação da Pista 337

FREQUÊNCIAS DO AERODROMO
Tipo A/D Nome Boston App Frequência 124.9 MHZ
Tipo A/D Nome Boston App Frequência 134.75 MHZ
Tipo ASOS Nome ASOS Frequência 119.55 MHZ
Tipo ATIS Nome ATIS Frequência 119.55 MHZ
Tipo CLD Nome CLNC DEL Frequência 135.9 MHZ
Tipo GND Nome GND Frequência 121.9 MHZ
Tipo RDO Nome BANGOR RDO Frequência 114.4 MHZ
Tipo TWR Nome TWR Frequência 121.3 MHZ
Tipo UNIC Nome UNICOM Frequência 122.95 MHZ

INFORMAÇÕES DE NAVEGAÇÃO PRÓXIMO AO AERODROMO

Informações de Meteorologia(METAR atual)
METAR DE KMHT
ADDS - METARS form results

(0950 UTC 26 April 2018)
Data provider http://aviationweather.gov/adds/metars/
 
METAR text: KMHT 260910Z 01004KT 1SM R35/P6000FT BR OVC005 11/10 A2956 RMK AO2 SFC VIS 2 1/2 T01110100
Conditions at: KMHT (MANCHESTER , NH, US) observed 0910 UTC 26 April 2018
Temperature: 11.1°C (52°F)
Dewpoint: 10.0°C (50°F) [RH = 93%]
Pressure (altimeter): 29.56 inches Hg (1001.1 mb)
Winds: from the N (10 degrees) at 5 MPH (4 knots; 2.1 m/s)
Visibility: 1.00 miles (1.61 km)
Ceiling: 500 feet AGL
Clouds: overcast cloud deck at 500 feet AGL
Weather: BR  (mist)

METAR text: KMHT 260853Z 03004KT 3/4SM R35/P6000FT BR OVC005 11/10 A2956 RMK AO2 SFC VIS 1 3/4 SLP023 60001 T01110100 58016
Conditions at: KMHT (MANCHESTER , NH, US) observed 0853 UTC 26 April 2018
Temperature: 11.1°C (52°F)
Dewpoint: 10.0°C (50°F) [RH = 93%]
Pressure (altimeter): 29.56 inches Hg (1001.1 mb)
[Sea-level pressure: 1002.3 mb]
Winds: from the NNE (30 degrees) at 5 MPH (4 knots; 2.1 m/s)
Visibility: 0.75 miles (1.21 km)
Ceiling: 500 feet AGL
Clouds: overcast cloud deck at 500 feet AGL
Weather: BR  (mist)

Forecast for: KMHT (MANCHESTER , NH, US)
Text: KMHT 260915Z 2609/2706 05004KT 2SM BR VCSH BKN005 OVC015
Forecast period: 0900 to 1200 UTC 26 April 2018
Forecast type: FROM: standard forecast or significant change
Winds: from the NE (50 degrees) at 5 MPH (4 knots; 2.1 m/s)
Visibility: 2.00 miles (3.22 km)
Ceiling: 500 feet AGL
Clouds: broken clouds at 500 feet AGL
overcast cloud deck at 1500 feet AGL
Weather: BR VCSH  (mist, showers in vicinity)
Forecast for: KMHT (MANCHESTER , NH, US)
Text: KMHT 260915Z 2609/2706 05004KT 2SM BR VCSH BKN005 OVC015
Forecast period: 0900 to 1200 UTC 26 April 2018
Forecast type: FROM: standard forecast or significant change
Winds: from the NE (50 degrees) at 5 MPH (4 knots; 2.1 m/s)
Visibility: 2.00 miles (3.22 km)
Ceiling: 500 feet AGL
Clouds: broken clouds at 500 feet AGL
overcast cloud deck at 1500 feet AGL
Weather: BR VCSH  (mist, showers in vicinity)
Forecast for: KMHT (MANCHESTER , NH, US)
Text: KMHT 260915Z 2609/2706 05004KT 2SM BR VCSH BKN005 OVC015
Forecast period: 1200 to 1600 UTC 26 April 2018
Forecast type: FROM: standard forecast or significant change
Winds: from the WNW (290 degrees) at 8 MPH (7 knots; 3.6 m/s)
Visibility: 6 or more miles (10+ km)
Ceiling: 2500 feet AGL
Clouds: broken clouds at 2500 feet AGL
Weather: no significant weather forecast for this period
Forecast for: KMHT (MANCHESTER , NH, US)
Text: KMHT 260915Z 2609/2706 05004KT 2SM BR VCSH BKN005 OVC015
Forecast period: 1200 to 1600 UTC 26 April 2018
Forecast type: FROM: standard forecast or significant change
Winds: from the WNW (290 degrees) at 8 MPH (7 knots; 3.6 m/s)
Visibility: 6 or more miles (10+ km)
Ceiling: 2500 feet AGL
Clouds: broken clouds at 2500 feet AGL
Weather: no significant weather forecast for this period
Forecast for: KMHT (MANCHESTER , NH, US)
Text: KMHT 260915Z 2609/2706 05004KT 2SM BR VCSH BKN005 OVC015
Forecast period: 1600 UTC 26 April 2018 to 0000 UTC 27 April 2018
Forecast type: FROM: standard forecast or significant change
Winds: from the W (270 degrees) at 14 MPH (12 knots; 6.2 m/s)
gusting to 21 MPH (18 knots; 9.4 m/s)
Visibility: 6 or more miles (10+ km)
Ceiling: 5000 feet AGL
Clouds: broken clouds at 5000 feet AGL
Weather: no significant weather forecast for this period
Forecast for: KMHT (MANCHESTER , NH, US)
Text: KMHT 260915Z 2609/2706 05004KT 2SM BR VCSH BKN005 OVC015
Forecast period: 1600 UTC 26 April 2018 to 0000 UTC 27 April 2018
Forecast type: FROM: standard forecast or significant change
Winds: from the W (270 degrees) at 14 MPH (12 knots; 6.2 m/s)
gusting to 21 MPH (18 knots; 9.4 m/s)
Visibility: 6 or more miles (10+ km)
Ceiling: 5000 feet AGL
Clouds: broken clouds at 5000 feet AGL
Weather: no significant weather forecast for this period
Forecast for: KMHT (MANCHESTER , NH, US)
Text: KMHT 260915Z 2609/2706 05004KT 2SM BR VCSH BKN005 OVC015
Forecast period: 0000 to 0600 UTC 27 April 2018
Forecast type: FROM: standard forecast or significant change
Winds: from the W (270 degrees) at 9 MPH (8 knots; 4.2 m/s)
Visibility: 6 or more miles (10+ km)
Clouds: few clouds at 25000 feet AGL
Weather: no significant weather forecast for this period
Forecast for: KMHT (MANCHESTER , NH, US)
Text: KMHT 260915Z 2609/2706 05004KT 2SM BR VCSH BKN005 OVC015
Forecast period: 0000 to 0600 UTC 27 April 2018
Forecast type: FROM: standard forecast or significant change
Winds: from the W (270 degrees) at 9 MPH (8 knots; 4.2 m/s)
Visibility: 6 or more miles (10+ km)
Clouds: few clouds at 25000 feet AGL
Weather: no significant weather forecast for this period

MAPA DO AERODROMO


Desenvolvido por Virtual Airlines Manager




Modificado por Servidor Brasil Amigos